Summerville, OR

1:09 AM PDT on September 20, 2014 (GMT -0700)
RAWS LAGRANDE 1 OR US | Change Station
CLOSE
Current Station
Personal Weather Station
Location: Summerville, OR
Elevation: 3079 ft
Nearby Weather Stations

Elev 3079 ft 45.55 °N, 118.01 °W | Updated 55 minutes ago

Clear
Clear
57.0 °F
Feels Like 57.0 °F
N
1.0
Wind Variable Wind from NNE
Gusts 5.0 mph

Today
High -- | Low -- °F
--% Chance of Precip.
Yesterday
High -- | Low -- °F
Precip. -- in
6:36 AM 6:53 PM
Waning Crescent, 14% visible
Pressure 30.12 in
Visibility 10.0 miles
Clouds Clear
Dew Point 42.0 °F
Humidity 57%
Rainfall -999.00 in
Snow Depth Not available.
UV 0 out of 12
Pollen 5.40 out of 12
Air Quality Not available.
Flu Activity Not available.
METAR KLGD 200755Z AUTO 00000KT 10SM CLR 11/01 A3012 RMK AO1

More Conditions Fewer Conditions

Pressure 30.12 in
Visibility 10.0 miles
Clouds Clear
Dew Point 42.0 °F
Humidity 57%
Rainfall -999.00 in
Snow Depth Not available.
UV 0 out of 12
Pollen 5.40 out of 12
Air Quality Not available.
Flu Activity Not available.
METAR KLGD 200755Z AUTO 00000KT 10SM CLR 11/01 A3012 RMK AO1

More Conditions Fewer Conditions

10-Day Weather Forecast

Almanac

Astronomy

Sep. 20, 2014 Rise Set
Actual Time 6:36 AM PDT 6:53 PM PDT
Civil Twilight 6:07 AM PDT 7:22 PM PDT
Nautical Twilight 5:32 AM PDT 7:57 PM PDT
Astronomical Twilight 4:56 AM PDT 8:33 PM PDT
Moon 3:12 AM PDT 5:05 PM PDT
Length of Visible Light 13h 15m
Length of Day
12h 16m
Tomorrow will be 3m 9s shorter.
Waning Crescent, 14% of the Moon is Illuminated
Today
Waning Crescent
Sep 24
New
Oct 1
First Quarter
Oct 8
Full
Oct 15
Last Quarter

Today's Extremes

State Highs State Lows

Community

WunderPhotos

Upload Photos

1,754,793 photos uploaded!

WunderBlogs® & News

Nearby

Snow Depth

Station Depth Elevation
Lucky Strike 2 in 5050 ft
Lake Creek R.S. 0 in 5200 ft
Roaring River 0 in 4900 ft
Sevenmile Marsh 0 in 6200 ft
Fourmile Lake 0 in 6000 ft

Earthquake Activity

City Distance Mag. Time & Date
No recent earthquake activity has been reported nearby.
Minimum magnitude displayed is 2.5.

Coastal Water Temperatures

Place Temperature
No Stations Reporting

Nearby Weather Stations